Time;durP1;ratioP1;P1;durP2;ratioP2;P2;SDS_P1;SDS_P2;PMS_P1;PMS_P2;Temp;Humidity;BMP_temperature;BMP_pressure;BME280_temperature;BME280_humidity;BME280_pressure;Samples;Min_cycle;Max_cycle;Signal;HPM_P1;HPM_P2
2022/08/10 00:00:21;;;;;;;5.25;0.80;;;17.80;99.90;;;;;;4946128;29;20090;-75
2022/08/10 00:02:58;;;;;;;1.17;0.70;;;17.70;99.90;;;;;;4945132;29;20043;-74
2022/08/10 00:05:25;;;;;;;1.80;0.70;;;17.60;99.90;;;;;;4947004;29;20047;-74
2022/08/10 00:07:51;;;;;;;1.23;0.93;;;17.60;99.90;;;;;;4947106;29;20533;-75
2022/08/10 00:10:20;;;;;;;4.88;1.13;;;17.60;99.90;;;;;;4945819;29;20024;-75
2022/08/10 00:12:46;;;;;;;1.38;0.90;;;17.60;99.90;;;;;;4946576;29;20020;-74
2022/08/10 00:15:13;;;;;;;5.60;0.93;;;17.60;99.90;;;;;;4946404;29;20047;-74
2022/08/10 00:17:39;;;;;;;2.17;1.00;;;17.50;99.90;;;;;;4945372;29;20134;-74
2022/08/10 00:20:06;;;;;;;2.03;1.20;;;17.50;99.90;;;;;;4947011;29;20115;-74
2022/08/10 00:22:32;;;;;;;1.48;0.85;;;17.50;99.90;;;;;;4946640;29;20020;-75
2022/08/10 00:24:58;;;;;;;3.78;1.48;;;17.40;99.90;;;;;;4946970;29;20044;-74
2022/08/10 00:27:25;;;;;;;2.92;1.63;;;17.40;99.90;;;;;;4945421;29;20023;-74
2022/08/10 00:29:50;;;;;;;1.60;1.00;;;17.40;99.90;;;;;;4945899;29;20453;-76
2022/08/10 00:32:16;;;;;;;1.23;0.88;;;17.40;99.90;;;;;;4946412;29;20049;-75
2022/08/10 00:34:42;;;;;;;3.20;1.58;;;17.30;99.90;;;;;;4944638;29;20434;-74
2022/08/10 00:37:07;;;;;;;1.58;1.10;;;17.30;99.90;;;;;;4946310;29;20031;-75
2022/08/10 00:39:33;;;;;;;6.05;1.00;;;17.20;99.90;;;;;;4946425;29;20028;-75
2022/08/10 00:41:59;;;;;;;1.70;1.13;;;17.30;99.90;;;;;;4946361;29;20044;-76
2022/08/10 00:44:27;;;;;;;2.30;1.33;;;17.30;99.90;;;;;;4945722;29;20016;-75
2022/08/10 00:46:53;;;;;;;3.08;1.20;;;17.30;99.90;;;;;;4945333;29;20047;-74
2022/08/10 00:49:19;;;;;;;1.77;1.10;;;17.20;99.90;;;;;;4945937;29;20040;-74
2022/08/10 00:51:44;;;;;;;1.38;0.93;;;17.20;99.90;;;;;;4946003;29;20032;-75
2022/08/10 00:54:10;;;;;;;2.88;1.40;;;17.10;99.90;;;;;;4946111;29;20472;-74
2022/08/10 00:56:36;;;;;;;1.98;1.20;;;17.10;99.90;;;;;;4945830;29;20038;-77
2022/08/10 00:59:02;;;;;;;2.28;1.25;;;17.10;99.90;;;;;;4946057;29;20023;-75
2022/08/10 01:01:27;;;;;;;4.35;1.58;;;17.00;99.90;;;;;;4946171;29;20105;-75
2022/08/10 01:03:53;;;;;;;12.15;1.35;;;17.00;99.90;;;;;;4945572;29;20078;-75
2022/08/10 01:06:44;;;;;;;1.08;0.95;;;17.10;99.90;;;;;;4944692;29;20051;-74
2022/08/10 01:09:24;;;;;;;4.68;1.55;;;16.90;99.90;;;;;;4945197;29;20101;-75
2022/08/10 01:12:23;;;;;;;3.60;1.30;;;17.00;99.90;;;;;;4945420;29;20028;-75
2022/08/10 01:15:02;;;;;;;2.05;1.00;;;16.90;99.90;;;;;;4929090;29;20071;-74
2022/08/10 01:17:41;;;;;;;1.15;1.02;;;16.80;99.90;;;;;;4945150;29;20048;-74
2022/08/10 01:20:20;;;;;;;25.05;1.63;;;16.80;99.90;;;;;;4945361;29;20034;-74
2022/08/10 01:22:52;;;;;;;2.83;1.30;;;;;;;;;;4943779;29;20053;-75
2022/08/10 01:25:24;;;;;;;2.17;1.30;;;;;;;;;;4944664;29;20024;-74
2022/08/10 01:28:09;;;;;;;1.38;1.05;;;;;;;;;;4945751;29;20020;-74
2022/08/10 01:30:35;;;;;;;;;;;;;;;;;;4945137;29;20031;-74
2022/08/10 01:33:03;;;;;;;2.97;1.50;;;;;;;;;;4945247;29;19915;-74
2022/08/10 01:35:36;;;;;;;2.85;1.38;;;;;;;;;;4945571;29;20050;-74
2022/08/10 01:38:08;;;;;;;2.40;1.20;;;;;;;;;;4943763;29;20035;-75
2022/08/10 01:40:36;;;;;;;2.72;1.50;;;;;;;;;;4945430;29;20020;-74
2022/08/10 01:43:04;;;;;;;2.38;1.48;;;;;;;;;;4943993;29;20032;-76
2022/08/10 01:45:32;;;;;;;2.75;1.80;;;;;;;;;;4943686;29;20432;-74
2022/08/10 01:50:46;;;;;;;1.85;1.20;;;;;;;;;;4945015;29;20034;-74
2022/08/10 01:53:19;;;;;;;2.70;1.20;;;;;;;;;;4944378;29;20389;-74
2022/08/10 01:55:48;;;;;;;3.88;1.92;;;;;;;;;;4943473;29;20063;-74
2022/08/10 01:58:15;;;;;;;2.50;1.33;;;;;;;;;;4944591;29;20024;-74
2022/08/10 02:00:44;;;;;;;2.28;1.30;;;;;;;;;;4943298;29;20063;-75
2022/08/10 02:03:10;;;;;;;2.35;1.25;;;;;;;;;;4944522;29;20026;-75
2022/08/10 02:05:38;;;;;;;2.40;1.67;;;;;;;;;;4944345;29;20020;-76
2022/08/10 02:08:05;;;;;;;1.88;1.25;;;;;;;;;;4944341;29;20024;-74
2022/08/10 02:10:33;;;;;;;6.25;1.88;;;;;;;;;;4944690;29;20923;-75
2022/08/10 02:13:00;;;;;;;3.67;1.63;;;;;;;;;;4942958;29;20441;-74
2022/08/10 02:15:28;;;;;;;2.50;1.50;;;;;;;;;;4944300;29;20392;-74
2022/08/10 02:17:59;;;;;;;2.60;1.45;;;;;;;;;;4942825;29;20048;-74
2022/08/10 02:20:26;;;;;;;3.63;1.17;;;;;;;;;;4944103;29;20036;-75
2022/08/10 02:22:58;;;;;;;3.08;2.00;;;;;;;;;;4944406;29;20024;-74
2022/08/10 02:25:25;;;;;;;1.20;0.90;;;;;;;;;;4944763;29;20027;-74
2022/08/10 02:27:52;;;;;;;3.17;1.85;;;16.80;99.90;;;;;;4943973;29;20020;-75
2022/08/10 02:30:19;;;;;;;3.15;2.00;;;16.30;99.90;;;;;;4944095;29;20079;-74
2022/08/10 02:32:47;;;;;;;1.73;1.23;;;16.50;99.90;;;;;;4944135;29;20016;-74
2022/08/10 02:35:13;;;;;;;1.85;1.23;;;16.40;99.90;;;;;;4942516;29;20035;-75
2022/08/10 02:37:42;;;;;;;2.85;1.55;;;16.30;99.90;;;;;;4944580;29;20023;-75
2022/08/10 02:40:09;;;;;;;4.68;1.70;;;16.30;99.90;;;;;;4943873;29;20039;-75
2022/08/10 02:42:56;;;;;;;3.97;1.73;;;16.30;99.90;;;;;;4943859;29;20092;-75
2022/08/10 02:45:32;;;;;;;6.25;1.88;;;16.20;99.90;;;;;;4944313;29;20404;-75
2022/08/10 02:48:11;;;;;;;6.85;1.67;;;16.20;99.90;;;;;;4943791;29;20035;-75
2022/08/10 02:50:41;;;;;;;5.03;1.70;;;16.20;99.90;;;;;;4944448;29;20020;-75
2022/08/10 02:53:22;;;;;;;2.53;1.35;;;16.10;99.90;;;;;;4958809;29;20027;-75
2022/08/10 02:56:08;;;;;;;6.05;1.67;;;16.10;99.90;;;;;;4943780;29;20054;-75
2022/08/10 02:58:49;;;;;;;3.22;1.75;;;16.10;99.90;;;;;;4943926;29;20027;-74
2022/08/10 03:01:20;;;;;;;3.00;1.52;;;16.10;99.90;;;;;;4943252;29;20036;-75
2022/08/10 03:04:07;;;;;;;4.43;1.58;;;16.10;99.90;;;;;;4944049;29;20031;-74
2022/08/10 03:06:40;;;;;;;4.25;1.38;;;16.10;99.90;;;;;;4944132;29;20035;-75
2022/08/10 03:09:15;;;;;;;3.17;1.88;;;16.00;99.90;;;;;;4944050;29;20034;-74
2022/08/10 03:11:43;;;;;;;4.28;1.40;;;16.00;99.90;;;;;;4942684;29;20031;-74
2022/08/10 03:14:09;;;;;;;2.13;1.23;;;16.00;99.90;;;;;;4943290;29;20091;-74
2022/08/10 03:16:36;;;;;;;4.03;1.70;;;16.10;99.90;;;;;;4943717;29;20055;-74
2022/08/10 03:19:04;;;;;;;2.30;1.55;;;16.10;99.90;;;;;;4943436;29;20023;-74
2022/08/10 03:21:31;;;;;;;4.00;1.58;;;16.00;99.90;;;;;;4943601;29;20024;-75
2022/08/10 03:24:08;;;;;;;6.20;1.83;;;16.00;99.90;;;;;;4945044;29;20439;-76
2022/08/10 03:26:39;;;;;;;2.92;1.50;;;16.00;99.90;;;;;;4947957;29;20087;-75
2022/08/10 03:29:07;;;;;;;2.10;1.58;;;16.00;99.90;;;;;;4947278;29;20035;-75
2022/08/10 03:31:33;;;;;;;2.88;1.55;;;16.00;99.90;;;;;;4945669;29;20038;-74
2022/08/10 03:34:01;;;;;;;3.67;1.58;;;16.00;99.90;;;;;;4945923;29;20110;-74
2022/08/10 03:36:27;;;;;;;4.88;1.45;;;16.00;99.90;;;;;;4947138;29;20019;-75
2022/08/10 03:38:53;;;;;;;1.92;1.05;;;16.00;99.90;;;;;;4947682;29;20038;-74
2022/08/10 03:41:25;;;;;;;4.45;1.70;;;16.00;99.90;;;;;;4947104;29;20020;-75
2022/08/10 03:43:51;;;;;;;1.58;0.93;;;16.10;99.90;;;;;;4948647;29;20028;-73
2022/08/10 03:46:24;;;;;;;2.83;1.58;;;16.00;99.90;;;;;;4947877;29;20019;-75
2022/08/10 03:48:53;;;;;;;2.67;1.40;;;15.90;99.90;;;;;;4946836;29;20028;-75
2022/08/10 03:51:20;;;;;;;2.05;1.48;;;15.80;99.90;;;;;;4946973;29;20026;-75
2022/08/10 03:53:47;;;;;;;4.68;2.05;;;15.90;99.90;;;;;;4947171;29;20020;-74
2022/08/10 03:56:13;;;;;;;3.17;1.88;;;15.90;99.90;;;;;;4946656;29;20373;-75
2022/08/10 03:58:38;;;;;;;2.03;1.40;;;15.90;99.90;;;;;;4946610;29;20090;-75
2022/08/10 04:01:06;;;;;;;3.22;1.52;;;15.90;99.90;;;;;;4947294;29;20468;-76
2022/08/10 04:03:32;;;;;;;2.22;1.10;;;15.80;99.90;;;;;;4947043;29;20035;-75
2022/08/10 04:05:58;;;;;;;4.57;1.85;;;15.80;99.90;;;;;;4947658;29;20083;-74
2022/08/10 04:08:23;;;;;;;3.25;1.60;;;15.70;99.90;;;;;;4947277;29;20036;-74
2022/08/10 04:10:49;;;;;;;1.60;1.10;;;15.80;99.90;;;;;;4945873;29;20070;-75
2022/08/10 04:13:15;;;;;;;2.78;1.55;;;15.70;99.90;;;;;;4947188;29;20027;-74
2022/08/10 04:15:40;;;;;;;2.85;1.38;;;15.70;99.90;;;;;;4945614;29;20532;-76
2022/08/10 04:18:06;;;;;;;2.53;1.48;;;15.80;99.90;;;;;;4946434;29;20044;-75
2022/08/10 04:20:55;;;;;;;5.75;1.73;;;15.80;99.90;;;;;;4946817;29;20030;-75
2022/08/10 04:23:29;;;;;;;2.05;1.35;;;15.80;99.90;;;;;;4946084;29;20118;-75
2022/08/10 04:25:55;;;;;;;2.40;1.52;;;15.80;99.90;;;;;;4947049;29;20473;-74
2022/08/10 04:28:22;;;;;;;4.15;1.55;;;15.90;99.90;;;;;;4946796;29;20035;-75
2022/08/10 04:30:52;;;;;;;2.85;1.17;;;15.90;99.90;;;;;;4945603;29;20031;-74
2022/08/10 04:33:21;;;;;;;2.67;1.30;;;15.90;99.90;;;;;;4945134;29;20119;-73
2022/08/10 04:35:48;;;;;;;2.00;1.23;;;15.90;99.90;;;;;;4944281;29;20043;-74
2022/08/10 04:38:15;;;;;;;4.28;1.95;;;15.80;99.90;;;;;;4946324;29;20027;-74
2022/08/10 04:40:42;;;;;;;1.80;1.10;;;16.00;99.90;;;;;;4946656;29;20090;-74
2022/08/10 04:43:08;;;;;;;2.70;1.60;;;15.90;99.90;;;;;;4946506;29;20084;-74
2022/08/10 04:45:34;;;;;;;1.48;1.23;;;16.00;99.90;;;;;;4946153;29;20062;-75
2022/08/10 04:48:00;;;;;;;3.03;1.73;;;15.90;99.90;;;;;;4946339;29;20016;-73
2022/08/10 04:50:26;;;;;;;6.93;1.40;;;16.00;99.90;;;;;;4946370;29;20076;-74
2022/08/10 04:52:52;;;;;;;2.30;1.20;;;16.10;99.90;;;;;;4944398;29;20059;-74
2022/08/10 04:55:21;;;;;;;1.48;1.05;;;16.00;99.90;;;;;;4946451;29;20044;-74
2022/08/10 04:57:47;;;;;;;2.95;1.30;;;16.00;99.90;;;;;;4946334;29;20024;-74
2022/08/10 05:00:13;;;;;;;1.23;1.00;;;16.10;99.90;;;;;;4944587;29;20043;-75
2022/08/10 05:02:39;;;;;;;2.10;1.38;;;16.10;99.90;;;;;;4944852;29;20035;-74
2022/08/10 05:05:05;;;;;;;1.75;1.33;;;16.10;99.90;;;;;;4945991;29;20027;-76
2022/08/10 05:07:31;;;;;;;11.77;1.33;;;16.20;99.90;;;;;;4946025;29;20016;-75
2022/08/10 05:09:57;;;;;;;1.95;1.30;;;16.20;99.90;;;;;;4944887;29;20391;-74
2022/08/10 05:12:22;;;;;;;3.00;1.55;;;16.30;99.90;;;;;;4942215;29;20095;-73
2022/08/10 05:14:48;;;;;;;2.15;1.27;;;16.20;99.90;;;;;;4943280;29;20077;-76
2022/08/10 05:17:21;;;;;;;4.53;2.45;;;16.40;99.90;;;;;;4944887;29;20074;-77
2022/08/10 05:19:47;;;;;;;4.68;1.40;;;16.40;99.90;;;;;;4943130;29;20028;-77
2022/08/10 05:22:12;;;;;;;1.92;1.20;;;16.40;99.90;;;;;;4942525;29;20046;-75
2022/08/10 05:24:38;;;;;;;4.90;1.05;;;16.40;99.90;;;;;;4944846;29;20031;-77
2022/08/10 05:27:03;;;;;;;2.35;1.50;;;16.40;99.90;;;;;;4944538;29;20032;-76
2022/08/10 05:29:29;;;;;;;1.25;1.00;;;16.50;99.90;;;;;;4944304;29;20038;-76
2022/08/10 05:32:04;;;;;;;2.05;1.20;;;16.50;99.90;;;;;;4943242;29;20682;-77
2022/08/10 05:34:30;;;;;;;2.15;1.17;;;16.60;99.90;;;;;;4943433;29;20067;-77
2022/08/10 05:36:56;;;;;;;3.45;1.90;;;16.60;99.90;;;;;;4943772;29;20038;-77
2022/08/10 05:39:22;;;;;;;4.78;1.77;;;16.60;99.90;;;;;;4958941;29;20059;-77
2022/08/10 05:41:53;;;;;;;3.08;1.52;;;16.60;99.90;;;;;;4942204;29;20110;-77
2022/08/10 05:44:23;;;;;;;2.63;1.70;;;16.70;99.90;;;;;;4944371;29;20063;-77
2022/08/10 05:46:49;;;;;;;3.05;1.27;;;16.70;99.90;;;;;;4941778;29;20047;-76
2022/08/10 05:49:15;;;;;;;2.13;1.10;;;16.70;99.90;;;;;;4942425;29;20059;-77
2022/08/10 05:51:42;;;;;;;5.35;1.63;;;16.70;99.90;;;;;;4942731;29;20496;-75
2022/08/10 05:54:13;;;;;;;11.45;1.67;;;16.70;99.90;;;;;;4942025;29;20090;-77
2022/08/10 05:56:41;;;;;;;3.75;1.75;;;16.70;99.90;;;;;;4943050;29;20028;-76
2022/08/10 05:59:08;;;;;;;3.25;1.58;;;16.80;99.90;;;;;;4943085;29;20051;-77
2022/08/10 06:01:38;;;;;;;6.93;2.33;;;16.90;99.90;;;;;;4944316;29;20473;-77
2022/08/10 06:04:06;;;;;;;2.22;1.42;;;16.80;99.90;;;;;;4944164;29;20038;-76
2022/08/10 06:06:33;;;;;;;2.22;1.45;;;16.90;99.90;;;;;;4944854;29;20087;-77
2022/08/10 06:09:00;;;;;;;9.65;1.52;;;16.90;99.90;;;;;;4942374;29;20042;-77
2022/08/10 06:11:29;;;;;;;2.78;1.80;;;16.90;99.90;;;;;;4942341;29;20031;-76
2022/08/10 06:16:43;;;;;;;2.42;1.52;;;17.00;99.90;;;;;;4944177;29;20082;-76
2022/08/10 06:19:10;;;;;;;2.58;1.35;;;17.10;99.90;;;;;;4944955;29;20088;-77
2022/08/10 06:21:36;;;;;;;5.63;1.27;;;17.10;99.90;;;;;;4944323;29;20038;-74
2022/08/10 06:24:04;;;;;;;2.00;1.20;;;17.20;99.90;;;;;;4944787;29;20036;-77
2022/08/10 06:26:30;;;;;;;1.70;1.13;;;17.20;99.90;;;;;;4944867;29;20147;-75
2022/08/10 06:29:01;;;;;;;2.05;1.33;;;17.30;99.90;;;;;;4943082;29;20035;-76
2022/08/10 06:31:28;;;;;;;4.15;1.20;;;17.40;99.90;;;;;;4958010;29;20046;-76
2022/08/10 06:33:56;;;;;;;3.20;1.63;;;17.50;99.90;;;;;;4942510;29;20035;-76
2022/08/10 06:36:23;;;;;;;2.30;1.10;;;17.50;99.90;;;;;;4943867;29;20051;-76
2022/08/10 06:38:50;;;;;;;2.28;1.38;;;17.60;99.90;;;;;;4942702;29;20091;-76
2022/08/10 06:41:21;;;;;;;1.88;1.20;;;17.60;99.90;;;;;;4943815;29;20060;-76
2022/08/10 06:43:56;;;;;;;1.67;1.10;;;17.70;99.90;;;;;;4942220;29;20412;-75
2022/08/10 06:46:22;;;;;;;;;;;17.80;99.90;;;;;;4943200;29;20027;-77
2022/08/10 06:48:56;;;;;;;1.70;1.00;;;17.80;99.90;;;;;;4940501;29;20571;-76
2022/08/10 06:51:24;;;;;;;;;;;18.00;99.90;;;;;;4942672;29;20170;-75
2022/08/10 06:53:55;;;;;;;3.28;1.08;;;18.10;99.90;;;;;;4943090;29;19917;-76
2022/08/10 06:56:26;;;;;;;2.17;1.48;;;18.20;99.90;;;;;;4941633;29;20144;-76
2022/08/10 06:59:05;;;;;;;2.55;0.90;;;18.30;99.90;;;;;;4948755;29;20046;-76
2022/08/10 07:01:35;;;;;;;3.25;1.38;;;18.40;99.90;;;;;;4948732;29;20039;-77
2022/08/10 07:04:14;;;;;;;2.55;1.40;;;18.50;99.90;;;;;;4948338;29;20055;-77
2022/08/10 07:06:43;;;;;;;1.77;1.02;;;18.60;99.90;;;;;;4948860;29;20051;-77
2022/08/10 07:09:11;;;;;;;1.77;1.20;;;18.50;99.90;;;;;;4950179;29;20027;-75
2022/08/10 07:11:39;;;;;;;2.35;1.42;;;18.70;99.90;;;;;;4949838;29;20023;-79
2022/08/10 07:14:07;;;;;;;2.40;1.20;;;18.80;99.90;;;;;;4947661;29;20023;-75
2022/08/10 07:16:34;;;;;;;2.15;1.42;;;18.90;99.90;;;;;;4949720;29;20059;-76
2022/08/10 07:19:01;;;;;;;3.28;1.52;;;19.00;99.90;;;;;;4950346;29;20059;-75
2022/08/10 07:21:29;;;;;;;1.17;0.88;;;19.10;99.90;;;;;;4949373;29;20038;-77
2022/08/10 07:23:56;;;;;;;3.67;1.77;;;19.20;99.90;;;;;;4950139;29;20028;-75
2022/08/10 07:26:23;;;;;;;1.02;0.80;;;19.20;99.90;;;;;;4949810;29;20032;-74
2022/08/10 07:28:50;;;;;;;2.55;1.38;;;19.30;99.90;;;;;;4948779;29;20043;-77
2022/08/10 07:31:20;;;;;;;6.82;1.20;;;19.50;99.90;;;;;;4949448;29;20022;-75
2022/08/10 07:33:48;;;;;;;2.35;1.08;;;19.40;99.90;;;;;;4949972;29;20035;-76
2022/08/10 07:36:17;;;;;;;7.03;1.23;;;19.70;99.90;;;;;;4949879;29;20032;-74
2022/08/10 07:38:43;;;;;;;1.73;1.13;;;19.70;99.90;;;;;;4949760;29;20026;-75
2022/08/10 07:41:09;;;;;;;3.60;1.50;;;19.70;99.90;;;;;;4947691;29;20039;-75
2022/08/10 07:43:38;;;;;;;6.88;1.40;;;19.90;99.90;;;;;;4948580;29;20052;-76
2022/08/10 07:46:07;;;;;;;1.88;0.90;;;19.90;99.90;;;;;;4949454;29;20028;-76
2022/08/10 07:48:39;;;;;;;3.35;1.58;;;20.10;99.90;;;;;;4949965;29;20028;-77
2022/08/10 07:51:07;;;;;;;1.27;0.95;;;20.20;99.90;;;;;;4949954;29;20026;-76
2022/08/10 07:53:38;;;;;;;11.32;1.23;;;20.20;99.90;;;;;;4947754;29;20091;-75
2022/08/10 07:56:06;;;;;;;1.45;0.95;;;20.30;99.90;;;;;;4949739;29;20111;-75
2022/08/10 07:58:44;;;;;;;4.05;1.20;;;20.40;99.90;;;;;;4948658;29;20042;-75
2022/08/10 08:01:12;;;;;;;1.50;0.90;;;20.50;99.90;;;;;;4949866;29;20028;-75
2022/08/10 08:03:39;;;;;;;2.83;1.30;;;20.60;99.90;;;;;;4949938;29;20042;-75
2022/08/10 08:06:07;;;;;;;3.60;1.10;;;20.70;99.90;;;;;;4948361;29;20031;-77
2022/08/10 08:08:36;;;;;;;5.10;1.27;;;20.80;99.90;;;;;;4947741;29;20031;-77
2022/08/10 08:11:03;;;;;;;9.40;0.90;;;20.80;99.90;;;;;;4945723;29;20491;-75
2022/08/10 08:13:30;;;;;;;1.67;1.15;;;21.00;99.90;;;;;;4944742;29;20031;-77
2022/08/10 08:15:57;;;;;;;1.02;0.85;;;21.00;99.90;;;;;;4945556;29;20031;-76
2022/08/10 08:18:23;;;;;;;1.70;0.85;;;21.10;99.90;;;;;;4945086;29;20051;-75
2022/08/10 08:20:49;;;;;;;1.25;0.90;;;21.20;99.90;;;;;;4944382;29;20027;-77
2022/08/10 08:23:16;;;;;;;2.25;1.50;;;21.30;99.90;;;;;;4946526;29;20062;-76
2022/08/10 08:25:43;;;;;;;1.83;1.20;;;21.30;99.90;;;;;;4946071;29;20039;-77
2022/08/10 08:28:10;;;;;;;1.27;0.82;;;21.40;99.90;;;;;;4942824;29;20036;-76
2022/08/10 08:30:38;;;;;;;3.33;1.35;;;21.40;99.90;;;;;;4934375;29;20028;-81
2022/08/10 08:33:06;;;;;;;3.85;1.13;;;21.50;99.90;;;;;;4939670;29;20051;-75
2022/08/10 08:35:32;;;;;;;1.73;0.95;;;21.60;99.90;;;;;;4938524;29;20063;-77
2022/08/10 08:37:59;;;;;;;13.60;0.93;;;21.70;99.90;;;;;;4944029;29;20035;-76
2022/08/10 08:40:32;;;;;;;1.38;0.88;;;21.80;99.90;;;;;;4941481;29;20491;-77
2022/08/10 08:43:11;;;;;;;2.97;0.90;;;21.90;99.90;;;;;;4942972;29;20042;-76
2022/08/10 08:45:56;;;;;;;1.80;1.10;;;22.10;99.90;;;;;;4945284;29;20050;-76
2022/08/10 08:48:40;;;;;;;;;;;22.20;99.90;;;;;;4943835;29;21211;-77
2022/08/10 08:51:17;;;;;;;1.10;0.65;;;22.30;99.90;;;;;;4943413;29;20369;-75
2022/08/10 08:54:11;;;;;;;5.68;0.80;;;22.40;99.90;;;;;;4942725;29;20071;-76
2022/08/10 08:56:42;;;;;;;1.45;0.88;;;22.60;99.90;;;;;;4942569;29;20044;-76
2022/08/10 08:59:18;;;;;;;1.15;0.90;;;22.70;99.90;;;;;;4945585;29;20039;-76
2022/08/10 09:02:20;;;;;;;1.83;1.10;;;22.80;99.90;;;;;;4942301;29;20404;-76
2022/08/10 09:04:49;;;;;;;3.03;0.80;;;23.00;99.90;;;;;;4944184;29;20044;-74
2022/08/10 09:07:52;;;;;;;0.88;0.55;;;23.10;99.90;;;;;;4944425;29;20043;-77
2022/08/10 09:10:20;;;;;;;1.80;0.80;;;23.30;99.90;;;;;;4944925;29;20032;-76
2022/08/10 09:13:28;;;;;;;1.40;1.00;;;23.40;99.90;;;;;;4944536;29;20035;-75
2022/08/10 09:16:15;;;;;;;2.40;0.95;;;23.50;99.90;;;;;;4943551;29;20126;-77
2022/08/10 09:18:55;;;;;;;0.90;0.73;;;23.60;99.90;;;;;;4944664;29;20040;-76
2022/08/10 09:21:36;;;;;;;1.27;0.85;;;23.70;99.90;;;;;;4943158;29;20052;-75
2022/08/10 09:24:14;;;;;;;1.48;0.90;;;23.90;99.90;;;;;;4945815;29;20025;-76
2022/08/10 09:26:40;;;;;;;2.05;1.08;;;23.80;99.90;;;;;;4945162;29;20055;-76
2022/08/10 09:29:10;;;;;;;1.48;0.90;;;23.90;99.90;;;;;;4944895;29;20055;-76
2022/08/10 09:31:45;;;;;;;0.93;0.63;;;24.00;99.90;;;;;;4944218;29;20056;-76
2022/08/10 09:34:45;;;;;;;2.03;0.90;;;24.00;99.90;;;;;;4943324;29;20055;-76
2022/08/10 09:37:22;;;;;;;2.70;1.00;;;24.10;99.90;;;;;;4936740;29;20043;-76
2022/08/10 09:39:54;;;;;;;1.15;0.93;;;24.20;99.90;;;;;;4943602;29;20083;-73
2022/08/10 09:42:36;;;;;;;1.55;0.75;;;24.30;99.90;;;;;;4942952;29;20059;-73
2022/08/10 09:45:08;;;;;;;1.08;0.63;;;24.30;99.90;;;;;;4945469;29;20116;-76
2022/08/10 09:47:52;;;;;;;11.15;0.95;;;24.40;99.90;;;;;;4944012;29;20462;-78
2022/08/10 09:50:43;;;;;;;1.38;0.80;;;24.50;99.90;;;;;;4945327;29;20042;-75
2022/08/10 09:53:32;;;;;;;0.55;0.55;;;24.60;99.90;;;;;;4944333;29;20032;-75
2022/08/10 09:56:35;;;;;;;0.73;0.57;;;24.60;99.90;;;;;;4944666;29;20043;-76
2022/08/10 09:59:13;;;;;;;5.75;0.57;;;24.70;99.90;;;;;;4944233;29;20035;-78
2022/08/10 10:02:16;;;;;;;1.35;0.88;;;24.70;99.90;;;;;;4942003;29;20028;-77
2022/08/10 10:05:10;;;;;;;0.88;0.60;;;24.80;99.90;;;;;;4940665;29;20285;-76
2022/08/10 10:07:46;;;;;;;3.90;1.00;;;24.90;99.90;;;;;;4944753;29;20023;-76
2022/08/10 10:10:23;;;;;;;0.88;0.65;;;25.00;99.90;;;;;;4944521;29;20090;-76
2022/08/10 10:13:08;;;;;;;0.73;0.65;;;25.20;99.90;;;;;;4944212;29;20038;-78
2022/08/10 10:15:49;;;;;;;1.00;0.63;;;25.30;99.90;;;;;;4943203;29;20039;-76
2022/08/10 10:18:46;;;;;;;13.30;1.20;;;25.30;99.90;;;;;;4944691;29;20051;-75
2022/08/10 10:21:40;;;;;;;2.78;1.05;;;25.40;99.90;;;;;;4943269;29;20035;-76
2022/08/10 10:24:25;;;;;;;3.35;0.80;;;25.50;99.90;;;;;;4943906;29;20055;-76
2022/08/10 10:27:14;;;;;;;1.00;0.60;;;25.50;99.90;;;;;;4943630;29;20036;-78
2022/08/10 10:30:13;;;;;;;1.20;0.75;;;25.60;99.90;;;;;;4944281;29;20027;-76
2022/08/10 10:33:24;;;;;;;2.47;1.15;;;25.70;99.90;;;;;;4915100;29;20107;-76
2022/08/10 10:35:53;;;;;;;0.93;0.60;;;25.70;99.90;;;;;;4941997;29;20035;-76
2022/08/10 10:38:25;;;;;;;0.40;0.40;;;25.80;99.90;;;;;;4943590;29;20028;-76
2022/08/10 10:41:10;;;;;;;2.03;0.93;;;25.90;99.90;;;;;;4944154;29;20015;-76
2022/08/10 10:43:52;;;;;;;3.55;0.98;;;25.90;99.90;;;;;;4943156;29;20027;-76
2022/08/10 10:46:32;;;;;;;2.53;0.80;;;26.10;99.90;;;;;;4942584;29;20043;-76
2022/08/10 10:49:19;;;;;;;5.15;0.77;;;26.20;99.90;;;;;;4942808;29;20047;-74
2022/08/10 10:52:00;;;;;;;0.70;0.70;;;26.20;99.90;;;;;;4942963;29;20102;-74
2022/08/10 10:54:40;;;;;;;1.67;0.75;;;26.40;99.90;;;;;;4944796;29;20087;-76
2022/08/10 10:57:33;;;;;;;0.85;0.65;;;26.50;99.90;;;;;;4944172;29;20023;-75
2022/08/10 11:00:07;;;;;;;2.42;0.80;;;26.60;99.90;;;;;;4943980;29;20436;-76
2022/08/10 11:02:48;;;;;;;0.77;0.60;;;26.60;99.90;;;;;;4943154;29;20024;-77
2022/08/10 11:05:51;;;;;;;1.02;0.65;;;26.70;99.90;;;;;;4943537;29;20027;-77
2022/08/10 11:08:27;;;;;;;0.60;0.30;;;26.80;99.90;;;;;;4943959;29;20484;-75
2022/08/10 11:10:55;;;;;;;1.08;0.60;;;26.90;99.90;;;;;;4943800;29;20055;-75
2022/08/10 11:13:27;;;;;;;0.68;0.50;;;27.00;99.90;;;;;;4942768;29;20031;-74
2022/08/10 11:16:29;;;;;;;1.95;0.60;;;27.10;99.90;;;;;;4943530;29;20079;-76
2022/08/10 11:19:17;;;;;;;2.13;0.70;;;27.20;99.90;;;;;;4942903;29;20051;-75
2022/08/10 11:22:01;;;;;;;0.50;0.50;;;27.30;99.90;;;;;;4943865;29;20023;-75
2022/08/10 11:24:55;;;;;;;0.82;0.55;;;27.50;99.90;;;;;;4943630;29;20042;-74
2022/08/10 11:27:58;;;;;;;0.95;0.88;;;27.70;99.90;;;;;;4943947;29;20043;-74
2022/08/10 11:30:34;;;;;;;0.65;0.38;;;27.80;99.90;;;;;;4928576;29;20036;-75
2022/08/10 11:33:28;;;;;;;0.77;0.50;;;27.90;99.90;;;;;;4943678;29;20459;-73
2022/08/10 11:36:21;;;;;;;;;;;28.00;99.90;;;;;;4942773;29;20043;-76
2022/08/10 11:39:13;;;;;;;2.55;0.73;;;28.00;99.90;;;;;;4943782;29;19911;-77
2022/08/10 11:41:52;;;;;;;1.38;1.17;;;28.10;99.90;;;;;;4942082;29;20032;-77
2022/08/10 11:44:59;;;;;;;1.08;0.57;;;28.20;99.90;;;;;;4943530;29;20027;-75
2022/08/10 11:47:30;;;;;;;1.20;0.47;;;28.30;99.90;;;;;;4961502;29;20023;-74
2022/08/10 11:50:33;;;;;;;0.95;0.40;;;28.40;99.90;;;;;;4945836;29;20040;-75
2022/08/10 11:53:18;;;;;;;1.80;0.73;;;28.60;99.90;;;;;;4947531;29;20027;-73
2022/08/10 11:55:51;;;;;;;4.03;0.50;;;28.80;99.90;;;;;;4946693;29;20044;-73
2022/08/10 12:01:08;;;;;;;1.45;0.40;;;29.20;99.90;;;;;;4947241;29;20034;-74
2022/08/10 12:03:38;;;;;;;0.57;0.55;;;29.20;99.90;;;;;;4946988;29;20034;-74
2022/08/10 12:06:07;;;;;;;0.70;0.60;;;29.20;99.90;;;;;;4947033;29;20024;-75
2022/08/10 12:08:34;;;;;;;0.40;0.40;;;29.30;99.90;;;;;;4947516;29;20027;-75
2022/08/10 12:11:00;;;;;;;1.13;0.60;;;29.30;99.90;;;;;;4947511;29;20075;-76
2022/08/10 12:13:56;;;;;;;0.82;0.40;;;29.30;99.90;;;;;;4946603;29;20024;-74
2022/08/10 12:16:24;;;;;;;6.13;0.93;;;29.10;99.90;;;;;;4946542;29;20040;-75
2022/08/10 12:19:17;;;;;;;1.63;0.50;;;29.20;99.90;;;;;;4945751;29;20484;-74
2022/08/10 12:22:06;;;;;;;2.00;0.75;;;29.30;99.90;;;;;;4946539;29;20031;-73
2022/08/10 12:24:41;;;;;;;1.85;0.73;;;29.40;99.90;;;;;;4945773;29;20034;-75
2022/08/10 12:27:21;;;;;;;0.95;0.52;;;29.50;99.90;;;;;;4945242;29;20032;-72
2022/08/10 12:29:58;;;;;;;0.90;0.45;;;29.50;99.90;;;;;;4946911;29;20028;-75
2022/08/10 12:32:32;;;;;;;0.98;0.57;;;29.50;99.90;;;;;;4947233;29;20106;-73
2022/08/10 12:35:36;;;;;;;2.75;0.63;;;29.60;99.90;;;;;;4946461;29;20031;-76
2022/08/10 12:38:21;;;;;;;0.65;0.55;;;29.80;99.90;;;;;;4946959;29;20032;-75
2022/08/10 12:40:55;;;;;;;0.20;0.20;;;30.00;99.90;;;;;;4960944;29;20020;-76
2022/08/10 12:43:42;;;;;;;20.73;0.98;;;30.10;99.90;;;;;;4944393;29;20038;-74
2022/08/10 12:46:35;;;;;;;0.65;0.60;;;30.20;99.90;;;;;;4960785;29;20114;-75
2022/08/10 12:49:45;;;;;;;1.65;0.85;;;30.50;99.90;;;;;;4946165;29;20042;-75
2022/08/10 12:52:26;;;;;;;0.47;0.43;;;30.80;99.90;;;;;;4960891;29;20028;-73
2022/08/10 12:54:52;;;;;;;1.63;0.85;;;30.80;99.90;;;;;;4946235;29;20040;-72
2022/08/10 12:57:21;;;;;;;3.67;0.50;;;30.90;99.90;;;;;;4944813;29;20385;-73
2022/08/10 12:59:50;;;;;;;0.80;0.52;;;31.10;99.90;;;;;;4945881;29;20087;-74
2022/08/10 13:02:24;;;;;;;0.22;0.22;;;31.10;99.90;;;;;;4945910;29;20024;-72
2022/08/10 13:04:52;;;;;;;3.03;0.50;;;31.20;99.90;;;;;;4946050;29;20046;-75
2022/08/10 13:07:31;;;;;;;1.45;0.75;;;31.30;99.90;;;;;;4944815;29;20038;-74
2022/08/10 13:10:03;;;;;;;1.10;0.60;;;31.30;99.90;;;;;;4945631;29;20039;-74
2022/08/10 13:12:32;;;;;;;2.05;0.82;;;31.30;99.90;;;;;;4944106;29;20090;-75
2022/08/10 13:15:14;;;;;;;5.20;0.52;;;31.20;99.90;;;;;;4944637;29;20036;-73
2022/08/10 13:17:41;;;;;;;0.93;0.40;;;31.30;99.90;;;;;;4940383;29;20060;-74
2022/08/10 13:20:26;;;;;;;0.77;0.32;;;31.40;99.90;;;;;;4937867;29;20568;-75
2022/08/10 13:22:53;;;;;;;;;;;31.50;99.90;;;;;;4944167;29;20027;-75
2022/08/10 13:25:27;;;;;;;0.40;0.30;;;31.60;99.90;;;;;;4943951;29;19915;-73
2022/08/10 13:27:55;;;;;;;0.30;0.30;;;31.60;99.90;;;;;;4945152;29;20095;-73
2022/08/10 13:30:24;;;;;;;2.42;0.73;;;31.60;99.90;;;;;;4945757;29;20694;-74
2022/08/10 13:32:51;;;;;;;0.95;0.68;;;31.50;99.90;;;;;;4944559;29;20428;-74
2022/08/10 13:35:18;;;;;;;0.68;0.50;;;31.60;99.90;;;;;;4944206;29;20035;-73